Meteo Giornale » Osservazioni meteo Argentina » San Juan Aerodrome
ore: 20:00 - Osservazioni Meteo San Juan Aerodrome
Lat. 31° 34' S Lon. 68° 52' W Alt. 597 metri s.l.m.
18 °C
Sereno
Temp. 24 Ore
9 °C
24 °C
Sud
13 Km/h
Dew point -2 °C
Umidità 25 %
Visibilità 10 Km
Il sole sorge alle ore 07:52
Il sole tramonta alle ore 19:18
| Data e Ora | Cielo e Fenomeni | T °C | DP °C | Um. % | Pres. hPa | Vis. km | Vento km/h | |
|---|---|---|---|---|---|---|---|---|
| Oggi h: 20:00 | Sereno | 18 | -2 | 25 | 1018 | 10 | S 13 | |
| Oggi h: 19:00 | Sereno | 22 | -1 | 21 | 1017 | 10 | S/SE 18.5 | |
| Oggi h: 18:00 | Sereno | 23 | -2 | 18 | 1017 | 10 | S/SE 22.2 | |
| Oggi h: 17:00 | Sereno | 24 | -1 | 19 | 1016 | 10 | S/SE 22.2 | |
| Oggi h: 16:00 | Sereno | 24 | 0 | 20 | 1018 | 10 | S/SE 22.2 | |
| Oggi h: 15:00 | Sereno | 23 | 0 | 21 | 1018 | 10 | S 25.9 | |
| Oggi h: 14:00 | Sereno | 22 | 0 | 23 | 1017 | 10 | S 25.9 | |
| Oggi h: 13:00 | Sereno | 21 | -1 | 22 | 1018 | 10 | S 24 | |
| Oggi h: 12:00 | Sereno | 20 | 0 | 26 | 1018 | 10 | S 25.9 | |
| Oggi h: 11:00 | Sereno | 18 | 1 | 31 | 1018 | 10 | S/SE 20.3 | |
| Oggi h: 10:00 | Sereno | 16 | 0 | 33 | 1017 | 10 | S/SE 24 | |
| Oggi h: 09:00 | Sereno | 10 | -1 | 46 | 1016 | 10 | S 13 | |
| Oggi h: 08:00 | Sereno | 9 | 1 | 57 | 1014 | 10 | N 5.5 | |
| Oggi h: 07:00 | Sereno | 10 | 0 | 49 | 1013 | 10 | SE 9.3 | |
| Oggi h: 06:00 | Sereno | 9 | -1 | 49 | 1012 | 10 | SE 9.3 | |
| Oggi h: 05:00 | Sereno | 9 | -1 | 49 | 1012 | 10 | N 0 | |
| Oggi h: 04:00 | Sereno | 9 | 0 | 53 | 1011 | 10 | S 7.4 | |
| Oggi h: 03:00 | Sereno | 12 | 0 | 43 | 1011 | 10 | S/SO 7.4 | |
| Oggi h: 02:00 | Sereno | 12 | 0 | 43 | 1010 | 10 | S/SE 14.8 | |
| Oggi h: 01:00 | Sereno | 12 | -2 | 37 | 1011 | 10 | SE 13 | |
| Oggi h: 00:00 | Sereno | 12 | -3 | 34 | 1010 | 10 | SE 14.8 | |
| Ieri h: 23:00 | Sereno | 11 | -2 | 40 | 1010 | 10 | SE 11.1 | |
| Ieri h: 22:00 | Sereno | 12 | -1 | 40 | 1010 | 10 | N 0 | |
| Ieri h: 21:00 | Sereno | 14 | -3 | 30 | 1009 | 10 | S 14.8 | |



